Terminal Aerodrome Forecast
Issued by NWS

Home | Current Version | Previous Version | Text Only | Print | Product List | Glossary On
Versions: 1 2 3 4 5 6 7 8 9 10 11 12 13 14 15 16 17
000
FTUS43 KIND 291000 AAA
TAFBMG
TAF AMD
KBMG 291007Z 2910/3006 00000KT 6SM BR SKC
      TEMPO 2911/2912 4SM BR
     FM291400 05006KT P6SM BKN120
      AMD LTD TO CLD VIS AND WIND TIL 291400=

USA.gov is the U.S. government's official web portal to all federal, state and local government web resources and services.